Bretagne — FNBR — position and weather

sailwx.info

Track history (hours):
 
Tides and Currents Weather Stations Pressure Air Temp Water Temp Dewpoint Dewpoint Depression Visibility Wind Speed Wind Dir Waves Ship Positions

Bretagne

Operator: Brittany Ferries

Last reported at 2014-Dec-19 22:18 UTC. Time now 2014-Dec-20 20:11 UTC.
Position N 50°22' W 004°09'.

Length 151 m; beam 27 m.

Type: Passenger vessel. MMSI: 227286000.

Date/timePositionNaut miles runAvg speedWind from/ knotsBaromVisibWave heightAir tempDewpointWater temp
2014-Dec-19 22:18N 50°22' W 004°09'0 0.1
2014-Dec-19 20:16N 50°22' W 004°09'0 0.0
2014-Dec-18 23:04N 50°22' W 004°09'0 0.3
2014-Dec-18 22:31N 50°22' W 004°09'0 0.0
2014-Dec-18 21:34N 50°22' W 004°09'0 0.0
2014-Dec-18 20:31N 50°22' W 004°09'0 0.0
2014-Dec-18 19:33N 50°22' W 004°09'12 8.7
2014-Dec-18 18:09N 50°11' W 004°01'12113.9
2014-Dec-18 09:28N 48°38' W 002°02'11410.0
2014-Dec-17 22:07N 50°28' W 001°17'815.0
2014-Dec-17 21:34N 50°35' W 001°09'1212.3
2014-Dec-17 20:33N 50°47' W 001°06'2 1.6
2014-Dec-17 19:32N 50°49' W 001°06'0 0.0
2014-Dec-17 18:32N 50°49' W 001°06'6 5.9
2014-Dec-17 17:34N 50°43' W 001°03'1717.1
2014-Dec-17 16:34N 50°28' W 001°15'11011.0
2014-Dec-17 06:33N 48°43' W 002°07'10412.9
2014-Dec-16 22:30N 50°24' W 001°24'1415.2
2014-Dec-16 21:34N 50°35' W 001°09'1212.4
2014-Dec-16 20:34N 50°47' W 001°06'2 1.6
2014-Dec-16 19:33N 50°49' W 001°06'0 0.0
2014-Dec-16 18:33N 50°49' W 001°06'6 5.8
2014-Dec-16 17:33N 50°43' W 001°03'120 5.6
2014-Dec-15 20:09N 50°22' W 004°09'0 0.0
2014-Dec-15 19:21N 50°22' W 004°09'0 0.0
2014-Dec-15 18:33N 50°22' W 004°09'0 0.0
2014-Dec-15 17:33N 50°22' W 004°09'0 0.0
2014-Dec-15 16:15N 50°22' W 004°09'0 0.0
2014-Dec-15 15:30N 50°22' W 004°09'0 0.0
2014-Dec-14 22:14N 50°22' W 004°09'0 0.2
2014-Dec-14 21:30N 50°22' W 004°09'0 0.0
2014-Dec-14 20:09N 50°22' W 004°09'  
2014-Dec-10 23:31N 50°29' W 001°38'1010.3
2014-Dec-10 22:33N 50°33' W 001°23'1010.5
2014-Dec-10 21:33N 50°37' W 001°08'1110.9
2014-Dec-10 20:33N 50°47' W 001°07'1 1.4
2014-Dec-10 19:33N 50°49' W 001°06'0 0.0
2014-Dec-10 18:33N 50°49' W 001°06'0 0.0
2014-Dec-10 17:33N 50°49' W 001°06'0 0.0
2014-Dec-10 16:33N 50°49' W 001°06'0 0.0
2014-Dec-10 15:33N 50°49' W 001°06'0 0.0
2014-Dec-10 14:33N 50°49' W 001°06'0 0.0
2014-Dec-10 13:33N 50°49' W 001°06'0 0.0
2014-Dec-10 12:33N 50°49' W 001°06'0 0.0
2014-Dec-10 11:33N 50°49' W 001°06'0 0.0
2014-Dec-10 10:33N 50°49' W 001°06'0 0.0
2014-Dec-10 09:33N 50°49' W 001°06'0 0.0
2014-Dec-10 08:33N 50°49' W 001°06'0 0.0
2014-Dec-10 07:33N 50°49' W 001°06'1110.5
2014-Dec-10 06:33N 50°38' W 001°06'  
Track history (hours):
 
Tides and Currents Weather Stations Pressure Air Temp Water Temp Dewpoint Dewpoint Depression Visibility Wind Speed Wind Dir Waves Ship Positions

Bretagne

Operator: Brittany Ferries

Last reported at 2014-Dec-19 22:18 UTC. Time now 2014-Dec-20 20:11 UTC.
Position N 50°22' W 004°09'.

Length 151 m; beam 27 m.

Type: Passenger vessel. MMSI: 227286000.

Date/timePositionNaut miles runAvg speedWind from/ knotsBaromVisibWave heightAir tempDewpointWater temp
2014-Dec-19 22:18N 50°22' W 004°09'0 0.1
2014-Dec-19 20:16N 50°22' W 004°09'0 0.0
2014-Dec-18 23:04N 50°22' W 004°09'0 0.3
2014-Dec-18 22:31N 50°22' W 004°09'0 0.0
2014-Dec-18 21:34N 50°22' W 004°09'0 0.0
2014-Dec-18 20:31N 50°22' W 004°09'0 0.0
2014-Dec-18 19:33N 50°22' W 004°09'12 8.7
2014-Dec-18 18:09N 50°11' W 004°01'12113.9
2014-Dec-18 09:28N 48°38' W 002°02'11410.0
2014-Dec-17 22:07N 50°28' W 001°17'815.0
2014-Dec-17 21:34N 50°35' W 001°09'1212.3
2014-Dec-17 20:33N 50°47' W 001°06'2 1.6
2014-Dec-17 19:32N 50°49' W 001°06'0 0.0
2014-Dec-17 18:32N 50°49' W 001°06'6 5.9
2014-Dec-17 17:34N 50°43' W 001°03'1717.1
2014-Dec-17 16:34N 50°28' W 001°15'11011.0
2014-Dec-17 06:33N 48°43' W 002°07'10412.9
2014-Dec-16 22:30N 50°24' W 001°24'1415.2
2014-Dec-16 21:34N 50°35' W 001°09'1212.4
2014-Dec-16 20:34N 50°47' W 001°06'2 1.6
2014-Dec-16 19:33N 50°49' W 001°06'0 0.0
2014-Dec-16 18:33N 50°49' W 001°06'6 5.8
2014-Dec-16 17:33N 50°43' W 001°03'120 5.6
2014-Dec-15 20:09N 50°22' W 004°09'0 0.0
2014-Dec-15 19:21N 50°22' W 004°09'0 0.0
2014-Dec-15 18:33N 50°22' W 004°09'0 0.0
2014-Dec-15 17:33N 50°22' W 004°09'0 0.0
2014-Dec-15 16:15N 50°22' W 004°09'0 0.0
2014-Dec-15 15:30N 50°22' W 004°09'0 0.0
2014-Dec-14 22:14N 50°22' W 004°09'0 0.2
2014-Dec-14 21:30N 50°22' W 004°09'0 0.0
2014-Dec-14 20:09N 50°22' W 004°09'  
2014-Dec-10 23:31N 50°29' W 001°38'1010.3
2014-Dec-10 22:33N 50°33' W 001°23'1010.5
2014-Dec-10 21:33N 50°37' W 001°08'1110.9
2014-Dec-10 20:33N 50°47' W 001°07'1 1.4
2014-Dec-10 19:33N 50°49' W 001°06'0 0.0
2014-Dec-10 18:33N 50°49' W 001°06'0 0.0
2014-Dec-10 17:33N 50°49' W 001°06'0 0.0
2014-Dec-10 16:33N 50°49' W 001°06'0 0.0
2014-Dec-10 15:33N 50°49' W 001°06'0 0.0
2014-Dec-10 14:33N 50°49' W 001°06'0 0.0
2014-Dec-10 13:33N 50°49' W 001°06'0 0.0
2014-Dec-10 12:33N 50°49' W 001°06'0 0.0
2014-Dec-10 11:33N 50°49' W 001°06'0 0.0
2014-Dec-10 10:33N 50°49' W 001°06'0 0.0
2014-Dec-10 09:33N 50°49' W 001°06'0 0.0
2014-Dec-10 08:33N 50°49' W 001°06'0 0.0
2014-Dec-10 07:33N 50°49' W 001°06'1110.5
2014-Dec-10 06:33N 50°38' W 001°06'  

Dump ship's entire track history